createdAt,value
2018-08-20T00:00:21.251Z,13.40
2018-08-20T00:01:21.250Z,12.60
2018-08-20T00:02:21.230Z,13.50
2018-08-20T00:03:21.221Z,12.90
2018-08-20T00:04:21.215Z,12.90
2018-08-20T00:05:21.199Z,13.00
2018-08-20T00:06:21.189Z,13.40
2018-08-20T00:07:21.178Z,12.10
2018-08-20T00:08:21.168Z,13.00
2018-08-20T00:09:21.157Z,12.50
2018-08-20T00:10:21.148Z,12.50
2018-08-20T00:11:21.137Z,12.60
2018-08-20T00:12:21.131Z,13.20
2018-08-20T00:13:21.118Z,12.60
2018-08-20T00:14:21.110Z,12.70
2018-08-20T00:15:21.094Z,12.40
2018-08-20T00:16:21.086Z,12.20
2018-08-20T00:17:21.074Z,12.20
2018-08-20T00:18:21.062Z,12.30
2018-08-20T00:19:21.053Z,11.70
2018-08-20T00:20:21.046Z,12.20
2018-08-20T00:21:21.031Z,12.30
2018-08-20T00:22:21.023Z,12.10
2018-08-20T00:23:21.010Z,12.30
2018-08-20T00:24:21.000Z,11.70
2018-08-20T00:25:20.987Z,11.70
2018-08-20T00:26:20.979Z,11.50
2018-08-20T00:27:20.967Z,11.70
2018-08-20T00:28:20.962Z,11.40
2018-08-20T00:29:20.945Z,11.50
2018-08-20T00:30:20.937Z,11.10
2018-08-20T00:31:20.929Z,11.30
2018-08-20T00:32:20.915Z,11.70
2018-08-20T00:33:20.906Z,11.50
2018-08-20T00:34:20.893Z,11.50
2018-08-20T00:35:20.886Z,11.50
2018-08-20T00:36:20.880Z,11.70
2018-08-20T00:37:20.861Z,10.70
2018-08-20T00:38:20.854Z,11.70
2018-08-20T00:39:20.841Z,11.00
2018-08-20T00:40:20.831Z,11.00
2018-08-20T00:41:20.820Z,12.20
2018-08-20T00:42:20.807Z,11.60
2018-08-20T00:43:20.802Z,11.30
2018-08-20T00:44:20.789Z,11.50
2018-08-20T00:45:20.777Z,11.40
2018-08-20T00:46:20.766Z,11.60
2018-08-20T00:47:20.758Z,12.40
2018-08-20T00:48:20.745Z,12.00
2018-08-20T00:49:20.736Z,12.30
2018-08-20T00:50:20.723Z,11.50
2018-08-20T00:51:20.713Z,11.20
2018-08-20T00:52:20.702Z,11.10
2018-08-20T00:53:20.691Z,11.90
2018-08-20T00:54:20.679Z,12.20
2018-08-20T00:55:20.670Z,11.60
2018-08-20T00:56:20.665Z,11.50
2018-08-20T00:57:20.649Z,11.50
2018-08-20T00:58:20.636Z,12.00
2018-08-20T00:59:20.630Z,10.90
2018-08-20T01:00:20.618Z,11.10
2018-08-20T01:01:20.604Z,11.90
2018-08-20T01:02:20.597Z,11.60
2018-08-20T01:03:20.588Z,11.60
2018-08-20T01:04:20.579Z,11.20
2018-08-20T01:05:20.564Z,11.30
2018-08-20T01:06:20.561Z,11.30
2018-08-20T01:07:20.543Z,10.80
2018-08-20T01:08:20.536Z,10.40
2018-08-20T01:09:20.526Z,11.50
2018-08-20T01:10:20.511Z,10.60
2018-08-20T01:11:20.507Z,11.40
2018-08-20T01:12:20.492Z,10.80
2018-08-20T01:13:20.479Z,11.50
2018-08-20T01:14:20.473Z,10.70
2018-08-20T01:15:20.465Z,10.60
2018-08-20T01:16:20.447Z,11.20
2018-08-20T01:17:20.437Z,11.00
2018-08-20T01:18:20.425Z,11.10
2018-08-20T01:19:20.413Z,11.30
2018-08-20T01:20:20.451Z,10.60
2018-08-20T01:21:20.395Z,11.40
2018-08-20T01:22:20.383Z,10.80
2018-08-20T01:23:20.374Z,10.80
2018-08-20T01:24:20.361Z,10.30
2018-08-20T01:25:20.353Z,10.80
2018-08-20T01:26:20.338Z,10.70
2018-08-20T01:27:20.340Z,10.80
2018-08-20T01:28:20.329Z,10.80
2018-08-20T01:29:20.307Z,11.20
2018-08-20T01:30:20.301Z,11.10
2018-08-20T01:31:20.284Z,11.10
2018-08-20T01:32:20.275Z,10.40
2018-08-20T01:33:20.272Z,11.20
2018-08-20T01:34:20.252Z,10.50
2018-08-20T01:35:20.242Z,12.40
2018-08-20T01:36:20.239Z,11.00
2018-08-20T01:37:20.222Z,11.00
2018-08-20T01:38:20.204Z,11.50
2018-08-20T01:39:20.204Z,12.00
2018-08-20T01:40:20.184Z,11.50
2018-08-20T01:41:20.173Z,11.20
2018-08-20T01:42:20.164Z,11.80
2018-08-20T01:43:20.153Z,12.00
2018-08-20T01:44:20.145Z,11.30
2018-08-20T01:45:20.133Z,11.90
2018-08-20T01:46:20.123Z,11.80
2018-08-20T01:47:20.108Z,11.40
2018-08-20T01:48:20.098Z,11.40
2018-08-20T01:49:20.085Z,11.60
2018-08-20T01:50:20.075Z,11.30
2018-08-20T01:51:20.109Z,11.60
2018-08-20T01:52:20.054Z,11.80
2018-08-20T01:53:20.048Z,11.60
2018-08-20T01:54:20.033Z,11.30
2018-08-20T01:55:20.024Z,11.50
2018-08-20T01:56:20.011Z,11.80
2018-08-20T01:57:20.003Z,12.10
2018-08-20T01:58:19.990Z,12.50
2018-08-20T01:59:19.981Z,12.20
2018-08-20T02:00:19.973Z,11.80
2018-08-20T02:01:19.959Z,12.20
2018-08-20T02:02:19.946Z,12.10
2018-08-20T02:03:19.934Z,12.10
2018-08-20T02:04:19.924Z,12.10
2018-08-20T02:05:19.913Z,12.10
2018-08-20T02:06:19.902Z,12.00
2018-08-20T02:07:19.892Z,12.20
2018-08-20T02:08:19.881Z,12.90
2018-08-20T02:09:19.869Z,12.70
2018-08-20T02:10:19.859Z,12.60
2018-08-20T02:11:19.850Z,13.20
2018-08-20T02:12:19.840Z,13.40
2018-08-20T02:13:19.831Z,12.70
2018-08-20T02:14:19.815Z,12.70
2018-08-20T02:15:19.804Z,13.40
2018-08-20T02:16:19.793Z,12.90
2018-08-20T02:17:19.787Z,13.00
2018-08-20T02:18:19.772Z,13.60
2018-08-20T02:19:19.761Z,13.60
2018-08-20T02:20:19.749Z,13.40
2018-08-20T02:21:19.740Z,13.50
2018-08-20T02:22:19.732Z,14.00
2018-08-20T02:23:19.722Z,14.00
2018-08-20T02:24:19.708Z,13.80
2018-08-20T02:25:19.703Z,13.80
2018-08-20T02:26:19.684Z,14.50
2018-08-20T02:27:19.674Z,15.00
2018-08-20T02:28:19.661Z,13.30
2018-08-20T02:29:19.652Z,13.30
2018-08-20T02:30:19.641Z,13.00
2018-08-20T02:31:19.632Z,14.00
2018-08-20T02:32:19.622Z,13.30
2018-08-20T02:33:19.645Z,13.70
2018-08-20T02:34:19.597Z,13.40
2018-08-20T02:35:19.593Z,13.60
2018-08-20T02:36:19.580Z,13.10
2018-08-20T02:37:19.565Z,13.80
2018-08-20T02:38:19.554Z,13.60
2018-08-20T02:39:19.548Z,14.30
2018-08-20T02:40:19.535Z,14.00
2018-08-20T02:41:19.522Z,14.50
2018-08-20T02:42:19.517Z,12.90
2018-08-20T02:43:19.499Z,13.70
2018-08-20T02:44:19.494Z,13.60
2018-08-20T02:45:19.478Z,13.70
2018-08-20T02:46:19.467Z,13.10
2018-08-20T02:47:19.455Z,14.10
2018-08-20T02:48:19.445Z,13.30
2018-08-20T02:49:19.437Z,13.60
2018-08-20T02:50:19.424Z,13.40
2018-08-20T02:51:19.415Z,13.80
2018-08-20T02:52:19.402Z,13.60
2018-08-20T02:53:19.393Z,14.00
2018-08-20T02:54:19.384Z,13.00
2018-08-20T02:55:19.367Z,13.50
2018-08-20T02:56:19.356Z,13.00
2018-08-20T02:57:19.346Z,13.40
2018-08-20T02:58:19.337Z,13.70
2018-08-20T02:59:19.329Z,12.90
2018-08-20T03:00:19.315Z,13.50
2018-08-20T03:01:19.306Z,13.40
2018-08-20T03:02:19.292Z,13.10
2018-08-20T03:03:19.282Z,13.60
2018-08-20T03:04:19.271Z,13.50
2018-08-20T03:05:19.258Z,13.80
2018-08-20T03:06:19.247Z,13.80
2018-08-20T03:07:19.236Z,13.00
2018-08-20T03:08:19.222Z,13.30
2018-08-20T03:09:19.214Z,13.00
2018-08-20T03:10:19.207Z,13.90
2018-08-20T03:11:19.193Z,13.60
2018-08-20T03:12:19.181Z,14.00
2018-08-20T03:13:19.170Z,13.10
2018-08-20T03:14:19.159Z,13.70
2018-08-20T03:15:19.148Z,13.50
2018-08-20T03:16:19.161Z,14.00
2018-08-20T03:17:19.150Z,14.10
2018-08-20T03:18:19.115Z,13.40
2018-08-20T03:19:19.104Z,13.90
2018-08-20T03:20:19.101Z,13.80
2018-08-20T03:21:19.080Z,14.10
2018-08-20T03:22:19.073Z,14.90
2018-08-20T03:23:19.064Z,14.30
2018-08-20T03:24:19.049Z,13.70
2018-08-20T03:25:19.037Z,13.70
2018-08-20T03:26:19.024Z,13.30
2018-08-20T03:27:19.015Z,13.50
2018-08-20T03:28:19.009Z,13.40
2018-08-20T03:29:18.997Z,13.50
2018-08-20T03:30:18.983Z,14.10
2018-08-20T03:31:18.977Z,14.50
2018-08-20T03:32:18.960Z,13.40
2018-08-20T03:33:18.952Z,12.90
2018-08-20T03:34:18.940Z,13.70
2018-08-20T03:35:18.928Z,13.10
2018-08-20T03:36:18.920Z,13.30
2018-08-20T03:37:18.903Z,13.90
2018-08-20T03:38:18.893Z,13.60
2018-08-20T03:39:18.884Z,13.70
2018-08-20T03:40:18.881Z,13.90
2018-08-20T03:41:18.863Z,14.50
2018-08-20T03:42:18.848Z,13.80
2018-08-20T03:43:18.841Z,14.40
2018-08-20T03:44:18.827Z,14.20
2018-08-20T03:45:18.815Z,14.60
2018-08-20T03:46:18.808Z,14.90
2018-08-20T03:47:18.797Z,14.00
2018-08-20T03:48:18.781Z,13.80
2018-08-20T03:49:18.776Z,14.10
2018-08-20T03:50:18.763Z,14.20
2018-08-20T03:51:18.747Z,14.80
2018-08-20T03:52:18.741Z,14.50
2018-08-20T03:53:18.732Z,14.70
2018-08-20T03:54:18.717Z,14.70
2018-08-20T03:55:18.709Z,14.90
2018-08-20T03:56:18.692Z,15.80
2018-08-20T03:57:18.680Z,15.30
2018-08-20T03:58:18.672Z,14.30
2018-08-20T03:59:18.659Z,14.20
2018-08-20T04:00:18.650Z,14.50
2018-08-20T04:01:18.635Z,15.40
2018-08-20T04:02:18.623Z,15.00
2018-08-20T04:03:18.614Z,15.40
2018-08-20T04:04:18.604Z,15.40
2018-08-20T04:05:18.592Z,15.40
2018-08-20T04:06:18.582Z,15.80
2018-08-20T04:07:18.569Z,14.90
2018-08-20T04:08:18.562Z,15.20
2018-08-20T04:09:18.550Z,16.40
2018-08-20T04:10:18.537Z,15.90
2018-08-20T04:11:18.524Z,15.90
2018-08-20T04:12:18.518Z,16.00
2018-08-20T04:13:18.500Z,16.90
2018-08-20T04:14:18.491Z,16.80
2018-08-20T04:15:18.486Z,15.80
2018-08-20T04:16:18.469Z,16.90
2018-08-20T04:17:18.461Z,15.00
2018-08-20T04:18:18.444Z,16.20
2018-08-20T04:19:18.435Z,17.50
2018-08-20T04:20:18.422Z,16.10
2018-08-20T04:21:18.412Z,15.70
2018-08-20T04:22:18.406Z,15.60
2018-08-20T04:23:18.389Z,15.60
2018-08-20T04:24:18.380Z,17.10
2018-08-20T04:25:18.373Z,16.70
2018-08-20T04:26:18.360Z,17.00
2018-08-20T04:27:18.345Z,17.30
2018-08-20T04:28:18.335Z,17.30
2018-08-20T04:29:18.325Z,17.00
2018-08-20T04:30:18.318Z,17.00
2018-08-20T04:31:18.299Z,16.60
2018-08-20T04:32:18.293Z,15.80
2018-08-20T04:33:18.278Z,16.40
2018-08-20T04:34:18.273Z,16.40
2018-08-20T04:35:18.255Z,16.50
2018-08-20T04:36:18.257Z,16.50
2018-08-20T04:37:18.236Z,16.80
2018-08-20T04:38:18.233Z,16.40
2018-08-20T04:39:18.216Z,16.90
2018-08-20T04:40:18.203Z,16.90
2018-08-20T04:41:18.190Z,15.80
2018-08-20T04:42:18.251Z,16.80
2018-08-20T04:43:18.167Z,16.80
2018-08-20T04:44:18.158Z,16.80
2018-08-20T04:45:18.142Z,15.50
2018-08-20T04:46:18.132Z,16.00
2018-08-20T04:47:18.125Z,16.20
2018-08-20T04:48:18.114Z,16.10
2018-08-20T04:49:18.097Z,16.40
2018-08-20T04:50:18.472Z,16.20
2018-08-20T04:51:18.293Z,15.60
2018-08-20T04:52:18.068Z,16.60
2018-08-20T04:53:18.054Z,16.10
2018-08-20T04:54:18.042Z,16.00
2018-08-20T04:55:18.031Z,16.20
2018-08-20T04:56:18.023Z,17.30
2018-08-20T04:57:18.010Z,15.20
2018-08-20T04:58:18.000Z,16.90
2018-08-20T04:59:17.988Z,16.70
2018-08-20T05:00:17.978Z,17.70
2018-08-20T05:01:17.965Z,16.60
2018-08-20T05:02:17.950Z,15.40
2018-08-20T05:03:17.944Z,16.60
2018-08-20T05:04:17.933Z,17.30
2018-08-20T05:05:17.917Z,16.30
2018-08-20T05:06:17.907Z,16.40
2018-08-20T05:07:17.914Z,16.50
2018-08-20T05:08:17.886Z,16.60
2018-08-20T05:09:17.882Z,16.20
2018-08-20T05:10:17.864Z,17.60
2018-08-20T05:11:17.850Z,16.40
2018-08-20T05:12:17.841Z,16.20
2018-08-20T05:13:17.828Z,17.70
2018-08-20T05:14:17.813Z,17.50
2018-08-20T05:15:17.802Z,17.60
2018-08-20T05:16:17.795Z,17.70
2018-08-20T05:17:17.781Z,17.40
2018-08-20T05:18:17.768Z,16.70
2018-08-20T05:19:17.757Z,17.40
2018-08-20T05:20:17.745Z,16.30
2018-08-20T05:21:17.735Z,17.30
2018-08-20T05:22:17.727Z,18.80
2018-08-20T05:23:17.719Z,17.90
2018-08-20T05:24:17.705Z,17.30
2018-08-20T05:25:17.690Z,16.50
2018-08-20T05:26:17.681Z,16.80
2018-08-20T05:27:17.678Z,17.80
2018-08-20T05:28:17.659Z,17.00
2018-08-20T05:29:17.700Z,17.10
2018-08-20T05:30:17.632Z,17.40
2018-08-20T05:31:17.624Z,17.30
2018-08-20T05:32:17.611Z,17.20
2018-08-20T05:33:17.600Z,17.60
2018-08-20T05:34:17.588Z,17.30
2018-08-20T05:35:17.576Z,15.90
2018-08-20T05:36:17.571Z,17.80
2018-08-20T05:37:17.554Z,17.10
2018-08-20T05:38:17.545Z,18.30
2018-08-20T05:39:17.530Z,17.40
2018-08-20T05:40:17.525Z,17.10
2018-08-20T05:41:17.508Z,17.30
2018-08-20T05:42:17.496Z,17.20
2018-08-20T05:43:17.485Z,16.50
2018-08-20T05:44:17.478Z,16.60
2018-08-20T05:45:17.464Z,16.70
2018-08-20T05:46:17.455Z,16.60
2018-08-20T05:47:17.444Z,17.00
2018-08-20T05:48:17.429Z,16.80
2018-08-20T05:49:17.424Z,16.40
2018-08-20T05:50:17.403Z,16.60
2018-08-20T05:51:17.395Z,16.70
2018-08-20T05:52:17.393Z,17.00
2018-08-20T05:53:17.372Z,17.20
2018-08-20T05:54:17.360Z,17.30
2018-08-20T05:55:17.350Z,16.70
2018-08-20T05:56:17.336Z,17.30
2018-08-20T05:57:17.331Z,17.30
2018-08-20T05:58:17.317Z,17.00
2018-08-20T05:59:17.393Z,17.50
2018-08-20T06:00:17.295Z,16.90
2018-08-20T06:01:17.279Z,17.80
2018-08-20T06:02:17.266Z,17.00
2018-08-20T06:03:17.261Z,16.70
2018-08-20T06:04:17.245Z,16.80
2018-08-20T06:05:17.240Z,17.00
2018-08-20T06:06:17.228Z,17.40
2018-08-20T06:07:17.213Z,17.40
2018-08-20T06:08:17.201Z,17.80
2018-08-20T06:09:17.194Z,18.00
2018-08-20T06:10:17.180Z,17.50
2018-08-20T06:11:17.170Z,17.00
2018-08-20T06:12:17.159Z,16.90
2018-08-20T06:13:17.146Z,17.70
2018-08-20T06:14:17.132Z,17.20
2018-08-20T06:15:17.154Z,17.50
2018-08-20T06:16:17.111Z,17.90
2018-08-20T06:17:17.097Z,17.10
2018-08-20T06:18:17.088Z,17.10
2018-08-20T06:19:17.075Z,17.20
2018-08-20T06:20:17.066Z,16.60
2018-08-20T06:21:17.057Z,16.70
2018-08-20T06:22:17.041Z,16.90
2018-08-20T06:23:17.030Z,18.20
2018-08-20T06:24:17.021Z,17.30
2018-08-20T06:25:17.008Z,17.20
2018-08-20T06:26:17.003Z,18.20
2018-08-20T06:27:16.990Z,17.40
2018-08-20T06:28:16.979Z,18.10
2018-08-20T06:29:16.982Z,18.70
2018-08-20T06:30:16.952Z,17.90
2018-08-20T06:31:16.945Z,17.30
2018-08-20T06:32:16.931Z,18.60
2018-08-20T06:33:16.933Z,17.80
2018-08-20T06:34:16.909Z,17.60
2018-08-20T06:35:16.896Z,17.20
2018-08-20T06:36:16.890Z,18.70
2018-08-20T06:37:16.872Z,19.10
2018-08-20T06:38:16.917Z,19.30
2018-08-20T06:39:16.858Z,18.80
2018-08-20T06:40:16.858Z,19.90
2018-08-20T06:41:16.829Z,19.20
2018-08-20T06:42:16.819Z,19.00
2018-08-20T06:43:16.807Z,19.00
2018-08-20T06:44:16.796Z,19.70
2018-08-20T06:45:16.789Z,20.10
2018-08-20T06:46:16.775Z,19.20
2018-08-20T06:47:16.764Z,18.80
2018-08-20T06:48:16.799Z,19.60
2018-08-20T06:49:16.746Z,20.30
2018-08-20T06:50:16.730Z,20.20
2018-08-20T06:51:16.725Z,20.10
2018-08-20T06:52:16.719Z,19.50
2018-08-20T06:53:16.698Z,19.40
2018-08-20T06:54:16.693Z,19.10
2018-08-20T06:55:16.678Z,20.00
2018-08-20T06:56:16.663Z,20.30
2018-08-20T06:57:16.653Z,19.10
2018-08-20T06:58:16.641Z,20.40
2018-08-20T06:59:16.629Z,21.00
2018-08-20T07:00:16.618Z,20.60
2018-08-20T07:01:16.615Z,20.70
2018-08-20T07:02:16.596Z,21.60
2018-08-20T07:03:16.586Z,22.00
2018-08-20T07:04:16.576Z,20.90
2018-08-20T07:05:16.564Z,21.50
2018-08-20T07:06:16.564Z,23.00
2018-08-20T07:07:16.544Z,24.80
2018-08-20T07:08:16.533Z,24.10
2018-08-20T07:09:16.526Z,22.70
2018-08-20T07:10:16.509Z,23.80
2018-08-20T07:11:16.505Z,22.70
2018-08-20T07:12:16.488Z,22.60
2018-08-20T07:13:16.477Z,21.00
2018-08-20T07:14:16.472Z,24.10
2018-08-20T07:15:16.455Z,23.90
2018-08-20T07:16:16.443Z,23.50
2018-08-20T07:17:16.432Z,24.40
2018-08-20T07:18:16.422Z,24.60
2018-08-20T07:19:16.413Z,23.40
2018-08-20T07:20:16.401Z,23.60
2018-08-20T07:21:16.392Z,23.80
2018-08-20T07:22:16.376Z,22.10
2018-08-20T07:23:16.369Z,22.00
2018-08-20T07:24:16.357Z,23.40
2018-08-20T07:25:16.344Z,22.50
2018-08-20T07:26:16.334Z,22.00
2018-08-20T07:27:16.324Z,22.20
2018-08-20T07:28:16.319Z,23.30
2018-08-20T07:29:16.300Z,23.50
2018-08-20T07:30:16.290Z,24.50
2018-08-20T07:31:16.277Z,22.60
2018-08-20T07:32:16.267Z,22.60
2018-08-20T07:33:16.261Z,23.60
2018-08-20T07:34:16.245Z,23.10
2018-08-20T07:35:16.243Z,23.30
2018-08-20T07:36:16.233Z,23.60
2018-08-20T07:37:16.213Z,23.70
2018-08-20T07:38:16.203Z,23.30
2018-08-20T07:39:16.192Z,22.70
2018-08-20T07:40:16.182Z,23.70
2018-08-20T07:41:16.169Z,23.30
2018-08-20T07:42:16.197Z,23.50
2018-08-20T07:43:16.153Z,23.00
2018-08-20T07:44:16.139Z,23.30
2018-08-20T07:45:16.127Z,23.80
2018-08-20T07:46:16.115Z,22.50
2018-08-20T07:47:16.105Z,23.60
2018-08-20T07:48:16.096Z,22.00
2018-08-20T07:49:16.082Z,22.90
2018-08-20T07:50:16.071Z,23.10
2018-08-20T07:51:16.063Z,22.80
2018-08-20T07:52:16.061Z,22.30
2018-08-20T07:53:16.048Z,24.10
2018-08-20T07:54:16.032Z,23.50
2018-08-20T07:55:16.025Z,22.80
2018-08-20T07:56:16.009Z,23.10
2018-08-20T07:57:16.005Z,22.10
2018-08-20T07:58:15.993Z,23.30
2018-08-20T07:59:15.981Z,23.50
2018-08-20T08:00:15.970Z,23.20
2018-08-20T08:01:15.958Z,23.10
2018-08-20T08:02:15.948Z,23.50
2018-08-20T08:03:15.937Z,22.50
2018-08-20T08:04:15.930Z,23.60
2018-08-20T08:05:15.916Z,22.90
2018-08-20T08:06:15.907Z,23.20
2018-08-20T08:07:15.907Z,24.10
2018-08-20T08:08:15.889Z,23.80
2018-08-20T08:09:15.875Z,22.60
2018-08-20T08:10:15.863Z,22.20
2018-08-20T08:11:15.858Z,23.00
2018-08-20T08:12:15.842Z,23.70
2018-08-20T08:13:15.836Z,22.70
2018-08-20T08:14:15.895Z,24.80
2018-08-20T08:15:15.821Z,24.00
2018-08-20T08:16:15.809Z,23.80
2018-08-20T08:17:15.793Z,23.50
2018-08-20T08:18:15.783Z,24.20
2018-08-20T08:19:15.779Z,22.60
2018-08-20T08:20:15.765Z,22.40
2018-08-20T08:21:15.750Z,22.60
2018-08-20T08:22:15.756Z,22.00
2018-08-20T08:23:15.735Z,24.10
2018-08-20T08:24:15.723Z,22.70
2018-08-20T08:25:15.713Z,22.80
2018-08-20T08:26:15.702Z,23.00
2018-08-20T08:27:15.701Z,24.60
2018-08-20T08:28:15.680Z,22.90
2018-08-20T08:29:15.669Z,24.50
2018-08-20T08:30:15.660Z,24.20
2018-08-20T08:31:15.650Z,23.00
2018-08-20T08:32:15.640Z,23.50
2018-08-20T08:33:15.637Z,23.20
2018-08-20T08:34:15.618Z,23.70
2018-08-20T08:35:15.611Z,22.70
2018-08-20T08:36:15.594Z,23.70
2018-08-20T08:37:15.586Z,23.90
2018-08-20T08:38:15.579Z,24.60
2018-08-20T08:39:15.571Z,24.40
2018-08-20T08:40:15.554Z,23.80
2018-08-20T08:41:15.542Z,22.80
2018-08-20T08:42:15.541Z,23.90
2018-08-20T08:43:15.525Z,24.50
2018-08-20T08:44:15.512Z,23.70
2018-08-20T08:45:15.509Z,24.50
2018-08-20T08:46:15.500Z,22.80
2018-08-20T08:47:15.483Z,22.40
2018-08-20T08:48:15.481Z,22.50
2018-08-20T08:49:15.461Z,23.50
2018-08-20T08:50:15.452Z,22.30
2018-08-20T08:51:15.441Z,22.50
2018-08-20T08:52:15.431Z,22.30
2018-08-20T08:53:15.416Z,23.70
2018-08-20T08:54:15.409Z,22.40
2018-08-20T08:55:15.398Z,23.30
2018-08-20T08:56:15.393Z,22.20
2018-08-20T08:57:15.382Z,22.60
2018-08-20T08:58:15.374Z,21.80
2018-08-20T08:59:15.356Z,22.40
2018-08-20T09:00:15.349Z,22.10
2018-08-20T09:01:15.337Z,23.10
2018-08-20T09:02:15.327Z,23.80
2018-08-20T09:03:15.316Z,23.60
2018-08-20T09:04:15.306Z,23.80
2018-08-20T09:05:15.301Z,24.00
2018-08-20T09:06:15.291Z,23.20
2018-08-20T09:07:15.275Z,22.40
2018-08-20T09:08:15.269Z,23.70
2018-08-20T09:09:15.261Z,22.90
2018-08-20T09:10:15.250Z,23.10
2018-08-20T09:11:15.240Z,22.50
2018-08-20T09:12:15.237Z,22.30
2018-08-20T09:13:15.220Z,22.30
2018-08-20T09:14:15.210Z,22.00
2018-08-20T09:15:15.201Z,22.50
2018-08-20T09:16:15.197Z,22.10
2018-08-20T09:17:15.184Z,31.90
2018-08-20T09:18:15.179Z,21.10
2018-08-20T09:19:15.164Z,21.90
2018-08-20T09:20:15.163Z,23.30
2018-08-20T09:21:15.144Z,22.80
2018-08-20T09:22:15.141Z,28.50
2018-08-20T09:23:15.129Z,22.50
2018-08-20T09:24:15.118Z,22.40
2018-08-20T09:25:15.111Z,22.30
2018-08-20T09:26:15.099Z,22.10
2018-08-20T09:27:15.089Z,22.20
2018-08-20T09:28:15.083Z,21.50
2018-08-20T09:29:15.074Z,22.80
2018-08-20T09:30:15.064Z,23.10
2018-08-20T09:31:15.053Z,21.00
2018-08-20T09:32:15.068Z,20.80
2018-08-20T09:33:15.032Z,20.90
2018-08-20T09:34:15.026Z,20.80
2018-08-20T09:35:15.019Z,21.80
2018-08-20T09:36:15.012Z,21.20
2018-08-20T09:37:15.008Z,20.50
2018-08-20T09:38:15.053Z,20.00
2018-08-20T09:39:14.990Z,19.10
2018-08-20T09:40:14.972Z,20.40
2018-08-20T09:41:14.968Z,20.00
2018-08-20T09:42:14.961Z,22.20
2018-08-20T09:43:14.949Z,22.10
2018-08-20T09:44:14.948Z,20.90
2018-08-20T09:45:14.926Z,20.80
2018-08-20T09:46:14.920Z,20.40
2018-08-20T09:47:14.912Z,19.20
2018-08-20T09:48:14.904Z,19.70
2018-08-20T09:49:14.897Z,19.90
2018-08-20T09:50:14.883Z,18.60
2018-08-20T09:51:14.875Z,19.00
2018-08-20T09:52:14.867Z,18.80
2018-08-20T09:53:14.927Z,18.00
2018-08-20T09:54:14.863Z,16.70
2018-08-20T09:55:14.853Z,17.50
2018-08-20T09:56:14.838Z,18.60
2018-08-20T09:57:14.824Z,17.70
2018-08-20T09:58:14.815Z,19.20
2018-08-20T09:59:14.807Z,19.40
2018-08-20T10:00:14.800Z,20.80
2018-08-20T10:01:14.788Z,19.30
2018-08-20T10:02:14.780Z,19.80
2018-08-20T10:03:14.779Z,19.90
2018-08-20T10:04:14.766Z,20.20
2018-08-20T10:05:14.762Z,20.70
2018-08-20T10:06:14.744Z,20.20
2018-08-20T10:07:14.738Z,21.30
2018-08-20T10:08:14.748Z,20.00
2018-08-20T10:09:14.720Z,20.10
2018-08-20T10:10:14.728Z,20.40
2018-08-20T10:11:14.703Z,19.00
2018-08-20T10:12:14.695Z,20.50
2018-08-20T10:13:14.680Z,20.10
2018-08-20T10:14:14.672Z,20.10
2018-08-20T10:15:14.668Z,19.60
2018-08-20T10:16:14.652Z,20.20
2018-08-20T10:17:14.652Z,20.70
2018-08-20T10:18:14.641Z,20.00
2018-08-20T10:19:14.634Z,19.60
2018-08-20T10:20:14.621Z,19.80
2018-08-20T10:21:14.609Z,20.50
2018-08-20T10:22:14.596Z,19.70
2018-08-20T10:23:14.592Z,19.80
2018-08-20T10:24:14.578Z,19.80
2018-08-20T10:25:14.565Z,21.20
2018-08-20T10:26:14.558Z,21.10
2018-08-20T10:27:14.548Z,20.70
2018-08-20T10:28:14.538Z,21.20
2018-08-20T10:29:14.537Z,21.60
2018-08-20T10:30:14.524Z,21.10
2018-08-20T10:31:14.509Z,22.50
2018-08-20T10:32:14.503Z,22.20
2018-08-20T10:33:14.501Z,21.50
2018-08-20T10:34:14.485Z,22.60
2018-08-20T10:35:14.487Z,21.80
2018-08-20T10:36:14.460Z,21.90
2018-08-20T10:37:14.455Z,21.80
2018-08-20T10:38:14.446Z,21.40
2018-08-20T10:39:14.428Z,22.30
2018-08-20T10:40:14.424Z,21.60
2018-08-20T10:41:14.418Z,22.40
2018-08-20T10:42:14.399Z,22.70
2018-08-20T10:43:14.395Z,23.60
2018-08-20T10:44:14.379Z,23.40
2018-08-20T10:45:14.373Z,23.10
2018-08-20T10:46:14.361Z,23.60
2018-08-20T10:47:14.352Z,24.10
2018-08-20T10:48:14.338Z,24.70
2018-08-20T10:49:14.336Z,24.70
2018-08-20T10:50:14.319Z,25.40
2018-08-20T10:51:14.324Z,26.10
2018-08-20T10:52:14.308Z,25.50
2018-08-20T10:53:14.292Z,25.90
2018-08-20T10:54:14.281Z,25.30
2018-08-20T10:55:14.266Z,24.00
2018-08-20T10:56:14.324Z,22.20
2018-08-20T10:57:14.245Z,21.30
2018-08-20T10:58:14.238Z,22.00
2018-08-20T10:59:14.228Z,20.30
2018-08-20T11:00:14.225Z,17.70
2018-08-20T11:01:14.213Z,18.60
2018-08-20T11:02:14.201Z,17.60
2018-08-20T11:03:14.199Z,17.40
2018-08-20T11:04:14.176Z,17.90
2018-08-20T11:05:14.172Z,17.40
2018-08-20T11:06:14.155Z,18.00
2018-08-20T11:07:14.145Z,17.60
2018-08-20T11:08:14.136Z,17.00
2018-08-20T11:09:14.124Z,17.30
2018-08-20T11:10:14.248Z,18.40
2018-08-20T11:11:14.108Z,16.90
2018-08-20T11:12:14.095Z,18.40
2018-08-20T11:13:14.084Z,17.80
2018-08-20T11:14:14.071Z,17.40
2018-08-20T11:15:14.061Z,17.90
2018-08-20T11:16:14.058Z,17.00
2018-08-20T11:17:14.042Z,17.40
2018-08-20T11:18:14.083Z,18.70
2018-08-20T11:19:14.022Z,19.00
2018-08-20T11:20:14.023Z,17.20
2018-08-20T11:21:14.007Z,17.70
2018-08-20T11:22:13.994Z,17.80
2018-08-20T11:23:13.981Z,17.80
2018-08-20T11:24:13.971Z,18.10
2018-08-20T11:25:13.973Z,18.30
2018-08-20T11:26:13.950Z,17.70
2018-08-20T11:27:13.945Z,17.50
2018-08-20T11:28:13.932Z,17.60
2018-08-20T11:29:13.921Z,18.60
2018-08-20T11:30:13.992Z,17.70
2018-08-20T11:31:13.900Z,18.60
2018-08-20T11:32:13.892Z,17.40
2018-08-20T11:33:13.881Z,17.10
2018-08-20T11:34:13.870Z,16.90
2018-08-20T11:35:13.868Z,17.20
2018-08-20T11:36:13.847Z,16.40
2018-08-20T11:37:13.853Z,16.00
2018-08-20T11:38:13.833Z,15.80
2018-08-20T11:39:13.821Z,15.20
2018-08-20T11:40:13.814Z,14.10
2018-08-20T11:41:13.803Z,12.90
2018-08-20T11:42:13.790Z,12.20
2018-08-20T11:43:13.843Z,12.60
2018-08-20T11:44:13.773Z,12.80
2018-08-20T11:45:13.765Z,11.10
2018-08-20T11:46:13.753Z,11.70
2018-08-20T11:47:13.744Z,10.60
2018-08-20T11:48:13.732Z,8.30
2018-08-20T11:49:13.812Z,7.00
2018-08-20T11:50:13.735Z,6.20
2018-08-20T11:51:13.702Z,5.70
2018-08-20T11:52:13.694Z,5.30
2018-08-20T11:53:13.688Z,4.80
2018-08-20T11:54:13.675Z,5.20
2018-08-20T11:55:13.661Z,4.40
2018-08-20T11:56:13.653Z,4.30
2018-08-20T11:57:13.646Z,4.40
2018-08-20T11:58:13.632Z,4.40
2018-08-20T11:59:13.627Z,4.70
2018-08-20T12:00:13.623Z,4.30
2018-08-20T12:01:13.607Z,4.20
2018-08-20T12:02:13.591Z,4.00
2018-08-20T12:03:13.588Z,4.20
2018-08-20T12:04:13.576Z,4.00
2018-08-20T12:05:13.569Z,4.00
2018-08-20T12:06:13.553Z,4.30
2018-08-20T12:07:13.602Z,4.00
2018-08-20T12:08:13.539Z,4.40
2018-08-20T12:09:13.529Z,4.10
2018-08-20T12:10:13.513Z,3.60
2018-08-20T12:11:13.505Z,4.00
2018-08-20T12:12:13.494Z,3.90
2018-08-20T12:13:13.485Z,4.00
2018-08-20T12:14:13.474Z,4.10
2018-08-20T12:15:13.465Z,3.90
2018-08-20T12:16:13.463Z,4.80
2018-08-20T12:17:13.511Z,4.50
2018-08-20T12:18:13.442Z,4.90
2018-08-20T12:19:13.429Z,4.80
2018-08-20T12:20:13.421Z,5.00
2018-08-20T12:21:13.416Z,5.00
2018-08-20T12:22:13.435Z,4.50
2018-08-20T12:23:13.453Z,5.00
2018-08-20T12:24:13.386Z,4.50
2018-08-20T12:25:13.378Z,4.20
2018-08-20T12:26:13.370Z,4.50
2018-08-20T12:27:13.365Z,4.80
2018-08-20T12:28:13.391Z,4.90
2018-08-20T12:29:13.342Z,5.50
2018-08-20T12:30:13.335Z,5.40
2018-08-20T12:31:13.326Z,5.50
2018-08-20T12:32:13.321Z,5.30
2018-08-20T12:33:13.307Z,5.00
2018-08-20T12:34:13.316Z,5.60
2018-08-20T12:35:13.289Z,5.30
2018-08-20T12:36:13.292Z,6.30
2018-08-20T12:37:13.281Z,6.10
2018-08-20T12:38:13.266Z,6.20
2018-08-20T12:39:13.260Z,5.80
2018-08-20T12:40:13.314Z,6.10
2018-08-20T12:41:13.245Z,5.80
2018-08-20T12:42:13.236Z,6.20
2018-08-20T12:43:13.230Z,5.60
2018-08-20T12:44:13.224Z,6.10
2018-08-20T12:45:13.212Z,6.10
2018-08-20T12:46:13.208Z,5.40
2018-08-20T12:47:13.199Z,5.70
2018-08-20T12:48:13.192Z,6.00
2018-08-20T12:49:13.185Z,6.20
2018-08-20T12:50:13.178Z,6.20
2018-08-20T12:51:13.172Z,5.90
2018-08-20T12:52:13.166Z,5.90
2018-08-20T12:53:13.158Z,6.20
2018-08-20T12:54:13.155Z,5.80